Time;durP1;ratioP1;P1;durP2;ratioP2;P2;SDS_P1;SDS_P2;PMS_P1;PMS_P2;Temp;Humidity;BMP_temperature;BMP_pressure;BME280_temperature;BME280_humidity;BME280_pressure;Samples;Min_cycle;Max_cycle;Signal;HPM_P1;HPM_P2
2021/08/05 00:00:51;;;;;;;4.05;1.48;;;;;;;;;;5057973;28;20511;-68
2021/08/05 00:03:17;;;;;;;2.28;1.13;;;;;;;;;;5040089;28;20021;-68
2021/08/05 00:05:43;;;;;;;3.05;1.40;;;;;;;;;;5040067;28;20035;-68
2021/08/05 00:08:09;;;;;;;2.50;1.20;;;;;;;;;;5058055;28;20052;-69
2021/08/05 00:10:36;;;;;;;3.50;1.48;;;;;;;;;;5058121;28;20017;-68
2021/08/05 00:13:02;;;;;;;2.63;1.30;;;;;;;;;;5058076;28;20029;-68
2021/08/05 00:15:28;;;;;;;2.47;1.33;;;;;;;;;;5037145;28;20106;-68
2021/08/05 00:17:54;;;;;;;2.30;1.23;;;;;;;;;;5054860;28;20025;-68
2021/08/05 00:20:20;;;;;;;2.65;1.10;;;;;;;;;;5054525;28;20033;-68
2021/08/05 00:22:46;;;;;;;3.22;1.63;;;;;;;;;;5054668;28;20017;-68
2021/08/05 00:25:12;;;;;;;4.43;1.55;;;;;;;;;;5054676;28;20475;-69
2021/08/05 00:27:38;;;;;;;4.35;1.40;;;;;;;;;;5054507;28;20029;-68
2021/08/05 00:30:05;;;;;;;2.72;1.25;;;;;;;;;;5054586;28;20135;-68
2021/08/05 00:32:31;;;;;;;2.58;1.15;;;;;;;;;;5054615;28;20025;-68
2021/08/05 00:34:57;;;;;;;3.33;1.60;;;;;;;;;;5054413;28;20067;-68
2021/08/05 00:37:23;;;;;;;3.05;1.58;;;;;;;;;;5036605;28;20013;-69
2021/08/05 00:39:49;;;;;;;3.60;1.30;;;;;;;;;;5054430;28;20115;-68
2021/08/05 00:42:15;;;;;;;3.90;1.55;;;;;;;;;;5054235;28;20036;-68
2021/08/05 00:44:41;;;;;;;4.10;1.35;;;;;;;;;;5054409;28;20514;-68
2021/08/05 00:47:07;;;;;;;3.05;1.60;;;;;;;;;;5036508;28;20029;-68
2021/08/05 00:49:34;;;;;;;2.50;1.25;;;;;;;;;;5054208;28;20403;-69
2021/08/05 00:52:00;;;;;;;2.80;1.40;;;;;;;;;;5036164;28;20017;-68
2021/08/05 00:54:26;;;;;;;3.03;1.50;;;;;;;;;;5053990;28;20032;-68
2021/08/05 00:56:52;;;;;;;3.13;1.42;;;;;;;;;;5054140;28;21119;-68
2021/08/05 00:59:18;;;;;;;3.00;1.33;;;;;;;;;;5053976;28;20025;-68
2021/08/05 01:01:45;;;;;;;3.72;1.52;;;;;;;;;;5053968;28;20116;-68
2021/08/05 01:04:12;;;;;;;2.47;1.33;;;;;;;;;;5053966;28;20018;-68
2021/08/05 01:06:57;;;;;;;3.70;1.55;;;;;;;;;;5053737;28;20013;-68
2021/08/05 01:09:39;;;;;;;3.58;1.20;;;;;;;;;;5035886;28;20423;-68
2021/08/05 01:12:05;;;;;;;3.08;1.33;;;;;;;;;;5053633;28;20028;-68
2021/08/05 01:14:35;;;;;;;2.65;1.20;;;;;;;;;;5053323;28;20037;-70
2021/08/05 01:17:02;;;;;;;2.15;1.20;;;;;;;;;;5053517;28;20108;-68
2021/08/05 01:19:56;;;;;;;3.17;1.40;;;;;;;;;;5053492;28;20514;-68
2021/08/05 01:22:41;;;;;;;2.53;1.35;;;;;;;;;;5052028;28;20036;-68
2021/08/05 01:25:09;;;;;;;1.98;1.00;;;;;;;;;;5053361;28;20048;-68
2021/08/05 01:27:36;;;;;;;3.00;1.33;;;;;;;;;;5051998;28;20017;-68
2021/08/05 01:30:04;;;;;;;3.22;1.23;;;;;;;;;;5053430;28;20116;-68
2021/08/05 01:32:30;;;;;;;2.83;1.30;;;;;;;;;;5053344;28;20028;-68
2021/08/05 01:34:56;;;;;;;3.38;1.60;;;;;;;;;;5051792;28;20025;-68
2021/08/05 01:37:23;;;;;;;4.30;1.35;;;;;;;;;;5053176;28;20029;-68
2021/08/05 01:39:50;;;;;;;2.80;1.50;;;;;;;;;;5053150;28;20550;-68
2021/08/05 01:42:21;;;;;;;2.60;1.23;;;;;;;;;;5051828;28;20032;-69
2021/08/05 01:44:49;;;;;;;3.95;1.58;;;;;;;;;;5053074;28;20029;-68
2021/08/05 01:47:16;;;;;;;4.97;1.40;;;;;;;;;;5052839;28;20024;-68
2021/08/05 01:49:42;;;;;;;3.40;1.20;;;;;;;;;;5053070;28;20025;-68
2021/08/05 01:52:08;;;;;;;3.13;1.40;;;;;;;;;;5051597;28;20013;-68
2021/08/05 01:54:35;;;;;;;4.22;1.23;;;;;;;;;;5052805;28;20025;-68
2021/08/05 01:57:01;;;;;;;2.60;1.40;;;;;;;;;;5052734;28;20027;-68
2021/08/05 01:59:27;;;;;;;2.35;1.23;;;;;;;;;;5052741;28;20033;-68
2021/08/05 02:01:53;;;;;;;3.97;1.65;;;;;;;;;;5052826;28;20090;-68
2021/08/05 02:04:28;;;;;;;4.13;1.40;;;;;;;;;;5052769;28;20025;-68
2021/08/05 02:07:07;;;;;;;3.42;1.20;;;;;;;;;;5052799;28;20021;-68
2021/08/05 02:09:36;;;;;;;3.13;1.50;;;;;;;;;;5051502;28;20027;-68
2021/08/05 02:12:02;;;;;;;3.42;1.55;;;;;;;;;;5051470;28;20128;-68
2021/08/05 02:14:29;;;;;;;2.97;1.20;;;;;;;;;;5051150;28;20045;-68
2021/08/05 02:16:56;;;;;;;3.28;1.58;;;;;;;;;;5052558;28;20025;-68
2021/08/05 02:19:22;;;;;;;2.80;1.20;;;;;;;;;;5052340;28;20096;-68
2021/08/05 02:21:50;;;;;;;2.63;1.20;;;;;;;;;;5052628;28;20079;-68
2021/08/05 02:24:18;;;;;;;2.60;0.93;;;;;;;;;;5051299;28;20028;-68
2021/08/05 02:26:44;;;;;;;4.20;1.40;;;;;;;;;;5052462;28;20021;-68
2021/08/05 02:29:11;;;;;;;3.85;1.50;;;;;;;;;;5051056;28;20039;-67
2021/08/05 02:31:37;;;;;;;5.00;1.45;;;;;;;;;;5052541;28;20480;-67
2021/08/05 02:34:04;;;;;;;3.90;1.00;;;;;;;;;;5052309;28;20088;-68
2021/08/05 02:36:30;;;;;;;3.55;1.40;;;;;;;;;;5052190;28;20096;-67
2021/08/05 02:38:56;;;;;;;3.05;1.15;;;;;;;;;;5051605;28;20017;-67
2021/08/05 02:41:23;;;;;;;2.83;1.15;;;;;;;;;;5052168;28;20036;-67
2021/08/05 02:43:50;;;;;;;3.55;1.65;;;;;;;;;;5052054;28;20383;-69
2021/08/05 02:46:16;;;;;;;3.40;1.42;;;;;;;;;;5051998;28;20029;-67
2021/08/05 02:48:43;;;;;;;3.08;1.30;;;;;;;;;;5052126;28;20051;-67
2021/08/05 02:51:10;;;;;;;2.67;1.23;;;;;;;;;;5052025;28;20028;-68
2021/08/05 02:53:36;;;;;;;2.67;1.40;;;;;;;;;;5051989;28;20025;-67
2021/08/05 02:56:03;;;;;;;4.80;1.50;;;;;;;;;;5051896;28;20028;-68
2021/08/05 02:58:29;;;;;;;4.95;1.25;;;;;;;;;;5052193;28;20031;-67
2021/08/05 03:00:56;;;;;;;3.75;1.45;;;;;;;;;;5051919;28;20040;-67
2021/08/05 03:03:23;;;;;;;2.72;1.38;;;;;;;;;;5052421;28;20017;-68
2021/08/05 03:05:50;;;;;;;2.67;1.20;;;;;;;;;;5051848;28;20025;-67
2021/08/05 03:08:16;;;;;;;2.28;1.20;;;;;;;;;;5051934;28;20550;-67
2021/08/05 03:10:42;;;;;;;3.72;1.75;;;;;;;;;;5051992;28;20446;-68
2021/08/05 03:13:08;;;;;;;2.80;1.30;;;;;;;;;;5052083;28;20024;-67
2021/08/05 03:15:34;;;;;;;3.17;1.20;;;;;;;;;;5051723;28;20057;-68
2021/08/05 03:18:00;;;;;;;2.78;1.38;;;;;;;;;;5050821;28;20469;-68
2021/08/05 03:20:27;;;;;;;4.95;1.60;;;;;;;;;;5051605;28;20534;-67
2021/08/05 03:22:54;;;;;;;2.75;1.20;;;;;;;;;;5051772;28;20025;-68
2021/08/05 03:25:20;;;;;;;2.60;1.35;;;;;;;;;;5051864;28;20028;-68
2021/08/05 03:27:46;;;;;;;3.33;1.30;;;;;;;;;;5050365;28;20444;-68
2021/08/05 03:30:12;;;;;;;3.22;1.50;;;;;;;;;;5051637;28;20021;-69
2021/08/05 03:32:38;;;;;;;3.47;1.48;;;;;;;;;;5051627;28;20052;-68
2021/08/05 03:35:04;;;;;;;2.40;1.27;;;;;;;;;;5050208;28;20048;-68
2021/08/05 03:37:30;;;;;;;3.53;1.48;;;;;;;;;;5050468;28;20036;-68
2021/08/05 03:39:56;;;;;;;3.20;1.35;;;;;;;;;;5051633;28;20037;-68
2021/08/05 03:42:23;;;;;;;2.75;1.30;;;;;;;;;;5050547;28;20021;-68
2021/08/05 03:44:50;;;;;;;3.17;1.60;;;;;;;;;;5051543;28;20044;-68
2021/08/05 03:47:16;;;;;;;4.90;1.30;;;;;;;;;;5051604;28;20017;-68
2021/08/05 03:49:42;;;;;;;2.63;1.40;;;;;;;;;;5051957;28;20413;-68
2021/08/05 03:52:10;;;;;;;2.97;1.40;;;;;;;;;;5055335;28;20092;-68
2021/08/05 03:54:36;;;;;;;3.17;1.50;;;;;;;;;;5055450;28;20032;-68
2021/08/05 03:57:03;;;;;;;6.05;1.60;;;;;;;;;;5054018;28;20028;-68
2021/08/05 03:59:29;;;;;;;3.53;1.73;;;;;;;;;;5053840;28;20128;-68
2021/08/05 04:01:55;;;;;;;3.00;1.42;;;;;;;;;;5053839;28;20025;-68
2021/08/05 04:04:21;;;;;;;3.05;1.40;;;;;;;;;;5053842;28;20025;-68
2021/08/05 04:06:47;;;;;;;3.75;1.55;;;;;;;;;;5055069;28;20503;-68
2021/08/05 04:09:13;;;;;;;2.45;1.20;;;;;;;;;;5055171;28;20021;-69
2021/08/05 04:11:39;;;;;;;2.55;1.15;;;;;;;;;;5053647;28;20029;-68
2021/08/05 04:14:05;;;;;;;2.88;1.40;;;;;;;;;;5054771;28;20076;-67
2021/08/05 04:16:33;;;;;;;3.83;1.70;;;;;;;;;;5054844;28;20045;-68
2021/08/05 04:18:59;;;;;;;3.28;1.55;;;;;;;;;;5054720;28;20025;-68
2021/08/05 04:21:25;;;;;;;2.88;1.48;;;;;;;;;;5054668;28;20051;-69
2021/08/05 04:23:51;;;;;;;2.47;1.25;;;;;;;;;;5054628;28;20024;-67
2021/08/05 04:26:17;;;;;;;3.00;1.33;;;;;;;;;;5053438;28;20033;-68
2021/08/05 04:28:43;;;;;;;4.70;1.60;;;;;;;;;;5053317;28;20480;-68
2021/08/05 04:31:09;;;;;;;3.22;1.30;;;;;;;;;;5054445;28;20067;-68
2021/08/05 04:33:35;;;;;;;3.38;1.40;;;;;;;;;;5054489;28;20021;-68
2021/08/05 04:36:01;;;;;;;3.78;1.45;;;;;;;;;;5054254;28;20021;-68
2021/08/05 04:38:27;;;;;;;3.47;1.58;;;;;;;;;;5054231;28;20021;-67
2021/08/05 04:40:53;;;;;;;3.97;1.65;;;;;;;;;;5053233;28;20040;-68
2021/08/05 04:43:19;;;;;;;4.38;1.60;;;;;;;;;;5054302;28;20021;-68
2021/08/05 04:45:45;;;;;;;3.80;1.40;;;;;;;;;;5054136;28;20025;-67
2021/08/05 04:48:11;;;;;;;2.70;1.23;;;;;;;;;;5054085;28;20028;-68
2021/08/05 04:50:39;;;;;;;4.13;1.85;;;;;;;;;;5054271;28;20034;-68
2021/08/05 04:53:06;;;;;;;4.38;1.40;;;;;;;;;;5054326;28;20361;-68
2021/08/05 04:55:33;;;;;;;4.65;1.65;;;;;;;;;;5054112;28;20022;-68
2021/08/05 04:58:03;;;;;;;4.75;1.60;;;;;;;;;;5054039;28;20021;-68
2021/08/05 05:00:30;;;;;;;3.28;1.60;;;;;;;;;;5053700;28;20032;-68
2021/08/05 05:02:57;;;;;;;3.53;1.40;;;;;;;;;;5052082;28;20083;-67
2021/08/05 05:05:23;;;;;;;3.25;1.50;;;;;;;;;;5054192;28;20291;-67
2021/08/05 05:07:50;;;;;;;3.72;1.50;;;;;;;;;;5053911;28;20465;-68
2021/08/05 05:10:16;;;;;;;3.53;1.80;;;;;;;;;;5053786;28;20080;-67
2021/08/05 05:12:42;;;;;;;3.00;1.50;;;;;;;;;;5053665;28;20016;-68
2021/08/05 05:15:10;;;;;;;2.80;1.40;;;;;;;;;;5053590;28;20070;-68
2021/08/05 05:17:36;;;;;;;4.38;1.85;;;;;;;;;;5054011;28;20033;-68
2021/08/05 05:20:04;;;;;;;5.38;1.83;;;;;;;;;;5053707;28;20052;-68
2021/08/05 05:22:30;;;;;;;4.82;1.83;;;;;;;;;;5053879;28;20150;-67
2021/08/05 05:24:56;;;;;;;4.70;1.73;;;;;;;;;;5053396;28;20077;-67
2021/08/05 05:27:22;;;;;;;3.10;1.63;;;;;;;;;;5053202;28;20025;-67
2021/08/05 05:29:48;;;;;;;4.20;1.75;;;;;;;;;;5053330;28;20427;-68
2021/08/05 05:32:14;;;;;;;3.95;1.80;;;;;;;;;;5053453;28;20499;-68
2021/08/05 05:34:40;;;;;;;3.15;1.60;;;;;;;;;;5053283;28;20365;-68
2021/08/05 05:37:06;;;;;;;4.45;1.85;;;;;;;;;;5053387;28;20021;-67
2021/08/05 05:39:32;;;;;;;3.88;1.85;;;;;;;;;;5053513;28;20044;-68
2021/08/05 05:41:59;;;;;;;3.47;1.80;;;;;;;;;;5051648;28;20049;-68
2021/08/05 05:44:25;;;;;;;5.43;2.00;;;;;;;;;;5053046;28;20029;-67
2021/08/05 05:46:51;;;;;;;4.35;1.80;;;;;;;;;;5053301;28;20629;-68
2021/08/05 05:49:17;;;;;;;3.78;1.70;;;;;;;;;;5052071;28;20025;-67
2021/08/05 05:51:43;;;;;;;3.78;1.80;;;;;;;;;;5053035;28;20049;-68
2021/08/05 05:54:09;;;;;;;3.25;1.70;;;;;;;;;;5051612;28;20025;-67
2021/08/05 05:56:35;;;;;;;5.53;2.03;;;;;;;;;;5052823;28;20060;-68
2021/08/05 05:59:01;;;;;;;3.67;1.73;;;;;;;;;;5052843;28;20017;-67
2021/08/05 06:01:27;;;;;;;3.72;1.67;;;;;;;;;;5052982;28;20025;-67
2021/08/05 06:03:53;;;;;;;3.55;1.80;;;;;;;;;;5052866;28;20021;-67
2021/08/05 06:06:19;;;;;;;3.40;1.70;;;;;;;;;;5051322;28;20032;-67
2021/08/05 06:08:45;;;;;;;3.30;1.90;;;;;;;;;;5052462;28;20025;-68
2021/08/05 06:11:11;;;;;;;3.88;1.90;;;;;;;;;;5052468;28;20024;-68
2021/08/05 06:13:38;;;;;;;4.05;2.28;;;;;;;;;;5051193;28;20052;-68
2021/08/05 06:16:04;;;;;;;5.63;1.95;;;;;;;;;;5052500;28;20123;-67
2021/08/05 06:18:30;;;;;;;4.35;1.92;;;;;;;;;;5051028;28;20036;-68
2021/08/05 06:20:56;;;;;;;7.25;1.90;;;;;;;;;;5051074;28;20504;-68
2021/08/05 06:23:22;;;;;;;4.93;2.35;;;;;;;;;;5052478;28;20021;-68
2021/08/05 06:25:48;;;;;;;3.70;2.00;;;;;;;;;;5051197;28;20025;-67
2021/08/05 06:28:14;;;;;;;4.47;1.80;;;;;;;;;;5052433;28;20021;-67
2021/08/05 06:30:40;;;;;;;3.72;1.80;;;;;;;;;;5050902;28;20025;-67
2021/08/05 06:33:06;;;;;;;3.83;1.88;;;;;;;;;;5052082;28;20052;-68
2021/08/05 06:35:32;;;;;;;3.03;1.65;;;;;;;;;;5052161;28;20467;-67
2021/08/05 06:37:58;;;;;;;5.53;2.13;;;;;;;;;;5052052;28;20082;-68
2021/08/05 06:40:24;;;;;;;4.70;2.33;;;;;;;;;;5052200;28;20037;-67
2021/08/05 06:42:50;;;;;;;4.65;2.10;;;;;;;;;;5052063;28;20028;-67
2021/08/05 06:45:16;;;;;;;4.95;1.77;;;;;;;;;;5050512;28;20503;-67
2021/08/05 06:47:50;;;;;;;3.65;1.75;;;;;;;;;;5051959;28;20106;-68
2021/08/05 06:50:16;;;;;;;3.85;2.05;;;;;;;;;;5050682;28;20028;-68
2021/08/05 06:52:42;;;;;;;4.63;1.98;;;;;;;;;;5052411;28;20048;-67
2021/08/05 06:55:09;;;;;;;4.40;2.20;;;;;;;;;;5050451;28;20807;-68
2021/08/05 06:57:35;;;;;;;6.03;2.38;;;;;;;;;;5052087;28;20033;-68
2021/08/05 07:00:01;;;;;;;3.58;1.75;;;;;;;;;;5051857;28;20118;-69
2021/08/05 07:02:27;;;;;;;4.03;1.67;;;;;;;;;;5050601;28;20499;-67
2021/08/05 07:04:54;;;;;;;4.28;2.03;;;;;;;;;;5051747;28;20044;-68
2021/08/05 07:07:20;;;;;;;5.35;1.90;;;;;;;;;;5050142;28;20075;-69
2021/08/05 07:09:46;;;;;;;4.40;2.17;;;;;;;;;;5051728;28;20025;-68
2021/08/05 07:12:12;;;;;;;4.13;1.83;;;;;;;;;;5051859;28;20088;-68
2021/08/05 07:14:39;;;;;;;5.15;1.90;;;;;;;;;;5051662;28;20132;-68
2021/08/05 07:17:05;;;;;;;3.50;1.80;;;;;;;;;;5052089;28;20021;-68
2021/08/05 07:19:31;;;;;;;4.85;1.92;;;;;;;;;;5051683;28;20053;-68
2021/08/05 07:21:57;;;;;;;3.80;2.10;;;;;;;;;;5051640;28;20029;-67
2021/08/05 07:24:23;;;;;;;3.30;1.63;;;;;;;;;;5051427;28;20386;-67
2021/08/05 07:26:49;;;;;;;3.85;2.00;;;;;;;;;;5055944;28;20021;-69
2021/08/05 07:29:15;;;;;;;3.97;1.80;;;;;;;;;;5055936;28;20056;-68
2021/08/05 07:31:41;;;;;;;3.92;2.15;;;;;;;;;;5055682;28;20103;-68
2021/08/05 07:34:07;;;;;;;4.10;2.00;;;;;;;;;;5055755;28;20017;-67
2021/08/05 07:36:33;;;;;;;3.00;1.70;;;;;;;;;;5055646;28;20025;-68
2021/08/05 07:39:00;;;;;;;4.65;1.85;;;;;;;;;;5055336;28;20464;-68
2021/08/05 07:41:26;;;;;;;4.40;1.98;;;;;;;;;;5055314;28;20634;-68
2021/08/05 07:43:52;;;;;;;5.75;2.08;;;;;;;;;;5054233;28;20025;-68
2021/08/05 07:46:18;;;;;;;6.38;2.03;;;;;;;;;;5055559;28;20025;-68
2021/08/05 07:48:44;;;;;;;3.80;2.00;;;;;;;;;;5055353;28;20021;-68
2021/08/05 07:51:10;;;;;;;3.17;1.83;;;;;;;;;;5055678;28;20024;-68
2021/08/05 07:53:36;;;;;;;5.88;2.38;;;;;;;;;;5055085;28;20527;-67
2021/08/05 07:56:02;;;;;;;4.28;2.00;;;;;;;;;;5055273;28;20075;-67
2021/08/05 07:58:28;;;;;;;3.40;1.77;;;;;;;;;;5055005;28;20467;-68
2021/08/05 08:00:55;;;;;;;6.65;2.60;;;;;;;;;;5054949;28;20085;-68
2021/08/05 08:03:21;;;;;;;4.40;2.35;;;;;;;;;;5054943;28;20024;-68
2021/08/05 08:05:47;;;;;;;4.78;2.13;;;;;;;;;;5054867;28;20021;-68
2021/08/05 08:08:16;;;;;;;4.35;2.03;;;;;;;;;;5054719;28;20017;-68
2021/08/05 08:10:42;;;;;;;7.13;2.22;;;;;;;;;;5054939;28;20472;-68
2021/08/05 08:13:08;;;;;;;4.82;2.13;;;;;;;;;;5054797;28;20029;-69
2021/08/05 08:15:34;;;;;;;5.20;1.90;;;;;;;;;;5054467;28;20091;-68
2021/08/05 08:18:00;;;;;;;7.03;2.60;;;;;;;;;;5053542;28;20055;-67
2021/08/05 08:20:27;;;;;;;4.55;2.50;;;;;;;;;;5054702;28;20036;-68
2021/08/05 08:22:53;;;;;;;4.15;2.00;;;;;;;;;;5054847;28;20017;-67
2021/08/05 08:25:19;;;;;;;5.47;2.28;;;;;;;;;;5054819;28;20052;-67
2021/08/05 08:27:45;;;;;;;4.03;2.15;;;;;;;;;;5054600;28;20021;-68
2021/08/05 08:30:12;;;;;;;4.72;2.55;;;;;;;;;;5054693;28;20029;-67
2021/08/05 08:32:38;;;;;;;4.13;2.05;;;;;;;;;;5054882;28;20418;-68
2021/08/05 08:35:05;;;;;;;4.65;2.40;;;;;;;;;;5054498;28;20052;-68
2021/08/05 08:37:31;;;;;;;6.82;2.40;;;;;;;;;;5053608;28;20082;-68
2021/08/05 08:39:57;;;;;;;6.50;2.90;;;;;;;;;;5052947;28;20384;-69
2021/08/05 08:42:23;;;;;;;6.53;2.90;;;;;;;;;;5053061;28;20040;-68
2021/08/05 08:44:49;;;;;;;6.22;2.40;;;;;;;;;;5054390;28;20128;-68
2021/08/05 08:47:16;;;;;;;4.13;2.13;;;;;;;;;;5054346;28;20024;-68
2021/08/05 08:49:42;;;;;;;5.70;2.45;;;;;;;;;;5054219;28;20075;-67
2021/08/05 08:52:09;;;;;;;5.35;2.25;;;;;;;;;;5054332;28;20025;-68
2021/08/05 08:54:40;;;;;;;7.75;2.47;;;;;;;;;;5054455;28;20025;-68
2021/08/05 08:57:06;;;;;;;7.20;2.75;;;;;;;;;;5054000;28;20052;-69
2021/08/05 08:59:33;;;;;;;7.50;2.58;;;;;;;;;;5054308;28;20033;-68
2021/08/05 09:01:59;;;;;;;5.65;2.92;;;;;;;;;;5052351;28;20055;-68
2021/08/05 09:04:25;;;;;;;5.93;2.35;;;;;;;;;;5053714;28;20070;-68
2021/08/05 09:06:51;;;;;;;5.95;2.78;;;;;;;;;;5052462;28;20044;-68
2021/08/05 09:09:17;;;;;;;6.32;2.80;;;;;;;;;;5053876;28;20017;-68
2021/08/05 09:11:43;;;;;;;5.45;2.58;;;;;;;;;;5054245;28;20099;-68
2021/08/05 09:14:10;;;;;;;5.38;2.80;;;;;;;;;;5053680;28;20048;-71
2021/08/05 09:16:36;;;;;;;7.07;2.78;;;;;;;;;;5053470;28;20098;-69
2021/08/05 09:19:14;;;;;;;3.95;2.35;;;;;;;;;;5053376;28;20029;-68
2021/08/05 09:22:01;;;;;;;5.22;2.25;;;;;;;;;;5053630;28;20047;-68
2021/08/05 09:24:28;;;;;;;6.32;2.53;;;;;;;;;;5052255;28;20017;-68
2021/08/05 09:26:57;;;;;;;5.45;2.85;;;;;;;;;;5053603;28;20021;-69
2021/08/05 09:29:24;;;;;;;6.18;3.30;;;;;;;;;;5052064;28;20029;-69
2021/08/05 09:31:51;;;;;;;6.65;3.20;;;;;;;;;;5052221;28;20321;-68
2021/08/05 09:34:17;;;;;;;6.82;3.00;;;;;;;;;;5053442;28;20060;-69
2021/08/05 09:36:43;;;;;;;5.50;2.42;;;;;;;;;;5053324;28;20025;-68
2021/08/05 09:39:30;;;;;;;5.18;2.72;;;;;;;;;;5053109;28;20029;-69
2021/08/05 09:41:56;;;;;;;5.63;2.50;;;;;;;;;;5035016;28;20078;-68
2021/08/05 09:44:22;;;;;;;5.80;2.95;;;;;;;;;;5051834;28;20025;-68
2021/08/05 09:47:00;;;;;;;6.32;2.58;;;;;;;;;;5053119;28;20028;-68
2021/08/05 09:49:29;;;;;;;5.30;2.60;;;;;;;;;;5051761;28;20029;-68
2021/08/05 09:51:55;;;;;;;6.00;2.92;;;;;;;;;;5052718;28;20092;-69
2021/08/05 09:54:21;;;;;;;4.82;2.65;;;;;;;;;;5052711;28;20075;-69
2021/08/05 09:56:56;;;;;;;6.63;2.85;;;;;;;;;;5051628;28;20017;-68
2021/08/05 09:59:22;;;;;;;6.57;3.08;;;;;;;;;;5052525;28;20086;-68
2021/08/05 10:01:56;;;;;;;6.05;3.17;;;;;;;;;;5053185;28;20025;-68
2021/08/05 10:04:26;;;;;;;6.05;3.47;;;;;;;;;;5052811;28;20017;-68
2021/08/05 10:06:59;;;;;;;6.13;2.65;;;;;;;;;;5053025;28;20028;-68
2021/08/05 10:09:26;;;;;;;11.45;3.67;;;;;;;;;;5051241;28;20039;-68
2021/08/05 10:11:52;;;;;;;8.45;3.05;;;;;;;;;;5052793;28;20134;-68
2021/08/05 10:14:27;;;;;;;5.22;2.92;;;;;;;;;;5052414;28;20056;-69
2021/08/05 10:16:54;;;;;;;7.28;3.45;;;;;;;;;;5052728;28;20025;-68
2021/08/05 10:19:20;;;;;;;7.32;3.00;;;;;;;;;;5052301;28;20033;-68
2021/08/05 10:21:47;;;;;;;6.28;3.03;;;;;;;;;;5052456;28;20086;-68
2021/08/05 10:24:14;;;;;;;6.38;3.15;;;;;;;;;;5052455;28;20017;-68
2021/08/05 10:26:40;;;;;;;6.70;3.20;;;;;;;;;;5052330;28;20024;-68
2021/08/05 10:29:06;;;;;;;7.93;3.30;;;;;;;;;;5052264;28;20025;-68
2021/08/05 10:31:33;;;;;;;6.32;3.17;;;;;;;;;;5052190;28;20484;-68
2021/08/05 10:33:59;;;;;;;9.05;3.30;;;;;;;;;;5052252;28;20017;-68
2021/08/05 10:36:25;;;;;;;5.95;3.15;;;;;;;;;;5052020;28;20541;-68
2021/08/05 10:38:51;;;;;;;7.15;2.78;;;;;;;;;;5052316;28;20029;-68
2021/08/05 10:41:17;;;;;;;6.25;3.00;;;;;;;;;;5052258;28;20044;-68
2021/08/05 10:43:44;;;;;;;5.25;2.75;;;;;;;;;;5051083;28;20074;-69
2021/08/05 10:46:10;;;;;;;7.05;2.90;;;;;;;;;;5052018;28;20184;-68
2021/08/05 10:48:38;;;;;;;6.88;3.15;;;;;;;;;;5051785;28;20083;-68
2021/08/05 10:51:04;;;;;;;5.38;2.60;;;;;;;;;;5051957;28;20048;-68
2021/08/05 10:53:36;;;;;;;7.32;3.05;;;;;;;;;;5050930;28;20071;-68
2021/08/05 10:56:21;;;;;;;5.73;3.00;;;;;;;;;;5052099;28;20021;-68
2021/08/05 10:59:07;;;;;;;4.60;2.55;;;;;;;;;;5051464;28;20043;-68
2021/08/05 11:01:48;;;;;;;6.45;2.55;;;;;;;;;;5050781;28;20037;-68
2021/08/05 11:04:39;;;;;;;5.82;2.40;;;;;;;;;;5050733;28;20119;-68
2021/08/05 11:07:23;;;;;;;5.38;2.65;;;;;;;;;;5046918;28;20110;-68
2021/08/05 11:09:50;;;;;;;5.88;2.72;;;;;;;;;;5051975;28;20495;-68
2021/08/05 11:12:35;;;;;;;4.95;2.38;;;;;;;;;;5052037;28;20108;-68
2021/08/05 11:15:01;;;;;;;4.78;2.47;;;;;;;;;;5051921;28;20162;-68
2021/08/05 11:17:27;;;;;;;4.90;2.70;;;;;;;;;;5050224;28;20025;-68
2021/08/05 11:20:12;;;;;;;6.47;2.40;;;;;;;;;;5051648;28;20029;-69
2021/08/05 11:22:38;;;;;;;5.30;2.70;;;;;;;;;;5051780;28;20138;-69
2021/08/05 11:25:04;;;;;;;5.38;2.30;;;;;;;;;;5051482;28;20103;-69
2021/08/05 11:27:30;;;;;;;6.57;3.22;;;;;;;;;;5050489;28;20118;-68
2021/08/05 11:29:56;;;;;;;4.82;2.90;;;;;;;;;;5051791;28;20035;-69
2021/08/05 11:32:23;;;;;;;6.75;2.92;;;;;;;;;;5051704;28;20469;-69
2021/08/05 11:34:55;;;;;;;6.97;2.80;;;;;;;;;;5051978;28;20289;-68
2021/08/05 11:37:21;;;;;;;4.82;2.65;;;;;;;;;;5050370;28;20025;-69
2021/08/05 11:39:54;;;;;;;5.63;2.88;;;;;;;;;;5051612;28;20025;-69
2021/08/05 11:42:21;;;;;;;5.68;2.88;;;;;;;;;;5050130;28;20025;-68
2021/08/05 11:44:48;;;;;;;6.60;3.42;;;;;;;;;;5051331;28;20024;-68
2021/08/05 11:47:19;;;;;;;6.07;3.10;;;;;;;;;;5050049;28;20029;-69
2021/08/05 11:49:51;;;;;;;5.95;3.28;;;;;;;;;;5051432;28;20020;-69
2021/08/05 11:52:23;;;;;;;6.50;2.92;;;;;;;;;;5051599;28;20017;-68
2021/08/05 11:54:58;;;;;;;6.90;3.08;;;;;;;;;;5051538;28;20025;-68
2021/08/05 11:57:24;;;;;;;6.22;2.90;;;;;;;;;;5050202;28;20028;-68
2021/08/05 11:59:54;;;;;;;6.55;3.00;;;;;;;;;;5051413;28;20036;-69
2021/08/05 12:02:23;;;;;;;5.88;3.00;;;;;;;;;;5051322;28;20025;-68
2021/08/05 12:04:50;;;;;;;6.50;3.17;;;;;;;;;;5051473;28;20025;-68
2021/08/05 12:07:21;;;;;;;5.15;2.78;;;;;;;;;;5050090;28;20074;-68
2021/08/05 12:09:54;;;;;;;6.18;3.17;;;;;;;;;;5051536;28;20013;-69
2021/08/05 12:12:21;;;;;;;6.22;3.40;;;;;;;;;;5053419;28;20081;-69
2021/08/05 12:14:48;;;;;;;5.95;3.13;;;;;;;;;;5054769;28;20048;-69
2021/08/05 12:17:14;;;;;;;6.05;2.97;;;;;;;;;;5054947;28;20021;-69
2021/08/05 12:19:49;;;;;;;6.65;3.35;;;;;;;;;;5054828;28;20025;-68
2021/08/05 12:22:16;;;;;;;6.63;3.40;;;;;;;;;;5054741;28;20116;-68
2021/08/05 12:24:50;;;;;;;6.72;3.17;;;;;;;;;;5054635;28;20014;-69
2021/08/05 12:27:20;;;;;;;5.82;3.40;;;;;;;;;;5054439;28;20051;-68
2021/08/05 12:30:04;;;;;;;7.30;3.50;;;;;;;;;;5054538;28;20036;-68
2021/08/05 12:32:30;;;;;;;5.30;3.03;;;;;;;;;;5054608;28;20029;-69
2021/08/05 12:34:56;;;;;;;9.23;3.50;;;;;;;;;;5054671;28;20017;-68
2021/08/05 12:37:22;;;;;;;5.72;3.42;;;;;;;;;;5053231;28;20040;-68
2021/08/05 12:39:48;;;;;;;5.20;3.20;;;;;;;;;;5054383;28;20087;-69
2021/08/05 12:42:15;;;;;;;7.30;3.35;;;;;;;;;;5054486;28;20423;-69
2021/08/05 12:44:42;;;;;;;5.65;3.30;;;;;;;;;;5052940;28;20502;-69
2021/08/05 12:47:08;;;;;;;7.15;3.17;;;;;;;;;;5053058;28;20086;-68
2021/08/05 12:49:36;;;;;;;4.82;2.72;;;;;;;;;;5054392;28;20105;-69
2021/08/05 12:52:03;;;;;;;7.07;3.55;;;;;;;;;;5054018;28;20017;-68
2021/08/05 12:54:30;;;;;;;5.22;2.92;;;;;;;;;;5054089;28;20029;-69
2021/08/05 12:56:57;;;;;;;6.20;3.47;;;;;;;;;;5052711;28;20024;-69
2021/08/05 12:59:26;;;;;;;6.00;3.53;;;;;;;;;;5052410;28;20025;-69
2021/08/05 13:02:05;;;;;;;4.82;2.85;;;;;;;;;;5054062;28;20068;-68
2021/08/05 13:04:32;;;;;;;5.30;3.03;;;;;;;;;;5052718;28;20033;-68
2021/08/05 13:06:59;;;;;;;6.07;3.30;;;;;;;;;;5052933;28;20108;-68
2021/08/05 13:09:26;;;;;;;7.57;3.50;;;;;;;;;;5052660;28;20032;-68
2021/08/05 13:11:52;;;;;;;7.50;3.40;;;;;;;;;;5053699;28;20079;-69
2021/08/05 13:14:31;;;;;;;5.45;3.10;;;;;;;;;;5053539;28;20053;-68
2021/08/05 13:17:13;;;;;;;7.05;3.70;;;;;;;;;;5053893;28;20017;-69
2021/08/05 13:19:58;;;;;;;5.15;3.35;;;;;;;;;;5053578;28;20021;-68
2021/08/05 13:22:35;;;;;;;6.13;3.45;;;;;;;;;;5053286;28;20047;-68
2021/08/05 13:25:01;;;;;;;6.00;3.40;;;;;;;;;;5052389;28;20186;-69
2021/08/05 13:27:33;;;;;;;5.55;3.42;;;;;;;;;;5053624;28;20021;-68
2021/08/05 13:30:19;;;;;;;6.85;3.33;;;;;;;;;;5053879;28;20025;-69
2021/08/05 13:32:46;;;;;;;6.22;3.53;;;;;;;;;;5052028;28;20032;-68
2021/08/05 13:35:13;;;;;;;5.80;3.35;;;;;;;;;;5053400;28;20043;-68
2021/08/05 13:37:56;;;;;;;5.45;3.15;;;;;;;;;;5051820;28;20029;-68
2021/08/05 13:40:23;;;;;;;5.47;3.25;;;;;;;;;;5051837;28;20041;-69
2021/08/05 13:42:49;;;;;;;7.70;3.35;;;;;;;;;;5053239;28;20074;-68
2021/08/05 13:45:16;;;;;;;6.28;3.20;;;;;;;;;;5053075;28;20025;-69
2021/08/05 13:47:42;;;;;;;7.65;3.50;;;;;;;;;;5053083;28;20024;-69
2021/08/05 13:50:12;;;;;;;5.30;3.22;;;;;;;;;;5052998;28;20041;-69
2021/08/05 13:52:38;;;;;;;5.57;3.20;;;;;;;;;;5052960;28;20035;-68
2021/08/05 13:55:04;;;;;;;8.68;3.10;;;;;;;;;;5053144;28;20272;-70
2021/08/05 13:57:30;;;;;;;6.65;3.20;;;;;;;;;;5051590;28;20029;-68
2021/08/05 13:59:56;;;;;;;6.18;3.17;;;;;;;;;;5052687;28;20028;-68
2021/08/05 14:02:22;;;;;;;5.78;2.90;;;;;;;;;;5052795;28;20044;-69
2021/08/05 14:04:48;;;;;;;6.90;3.47;;;;;;;;;;5052644;28;20020;-68
2021/08/05 14:07:14;;;;;;;4.95;3.05;;;;;;;;;;5052440;28;20057;-68
2021/08/05 14:09:40;;;;;;;4.97;3.30;;;;;;;;;;5051468;28;20021;-68
2021/08/05 14:12:08;;;;;;;6.22;3.63;;;;;;;;;;5052493;28;20064;-69
2021/08/05 14:14:34;;;;;;;5.28;3.13;;;;;;;;;;5052382;28;20033;-69
2021/08/05 14:17:01;;;;;;;5.65;3.42;;;;;;;;;;5052529;28;20025;-69
2021/08/05 14:19:27;;;;;;;4.70;3.00;;;;;;;;;;5052721;28;20021;-69
2021/08/05 14:21:53;;;;;;;5.00;3.13;;;;;;;;;;5053336;28;20033;-69
2021/08/05 14:24:20;;;;;;;5.45;3.30;;;;;;;;;;5053378;28;20048;-68
2021/08/05 14:26:46;;;;;;;5.93;3.17;;;;;;;;;;5052578;28;20025;-69
2021/08/05 14:29:12;;;;;;;5.43;3.08;;;;;;;;;;5052248;28;20023;-68
2021/08/05 14:31:39;;;;;;;8.40;3.60;;;;;;;;;;5052267;28;20043;-69
2021/08/05 14:34:05;;;;;;;5.85;2.90;;;;;;;;;;5051466;28;20379;-69
2021/08/05 14:36:32;;;;;;;4.80;2.90;;;;;;;;;;5051150;28;20112;-68
2021/08/05 14:38:58;;;;;;;7.75;3.25;;;;;;;;;;5050799;28;20476;-69
2021/08/05 14:41:24;;;;;;;4.97;2.78;;;;;;;;;;5052769;28;20037;-68
2021/08/05 14:43:50;;;;;;;5.20;2.88;;;;;;;;;;5051972;28;20092;-69
2021/08/05 14:46:16;;;;;;;4.93;2.90;;;;;;;;;;5052127;28;20415;-68